Buckley Air Force Base
KBKF : now visible

Airfield :











YOU CAN JOIN US ON...

 
LOGIN :

Register | Disclaimer

   EN    FR    IT 

 









Legend :    VFR   Marginal VFR   IFR   Intensive IFR   Very Intensive IFR
Visi :
Ceiling :
>= 8 km
>= 3000ft
5 to 8 km
1000 to 3000 ft
1500m to 5 km
500 to 1000 ft
800 to 1500m
200 to 500 ft
< 800m
< 200 ft
Symbols :   Thunderstorms  Fog  Heavy snow  Heavy precipitations  Wind > 20 kt






- Airport Elevation : 5662 ft


KBKF - Buckley Air Force Base

CURRENT METAR :
  • 151358Z 06003KT 10SM FEW002 FEW015 SCT060 BKN150 M06/M09 A2982 RMK AO2A SLP131 T10621089

EXPIRED METARs :
  • 151258Z 08005KT 10SM FEW001 SCT017 BKN060 M06/M08 A2981 RMK AO2A SLP122 T10561076
  • 151158Z 12005KT 10SM FEW001 FEW017 SCT060 M06/M06 A2979 RMK AO2A SLP115 T10571058 11029 21079 52017

TAF TAF KBKF
Valid from the 15 at 09:00 until the 16 at 15:00 UTC


150907Z 1509/1615 17009KT 9999 BKN060 650609 QNH2970INS
BECMG 1513/1514 VRB06KT 9999 SCT030 SCT060 BKN140 QNH2973INS
BECMG 1600/1601 VRB06KT 9999 BKN050 650509 QNH2985INS
TEMPO 1601/1605 8000 -SN
BECMG 1605/1606 VRB06KT 9999 SCT060 QNH2990INS TX00/1509Z TNM07/1515Z



MET'MAP, your aeronautical weather chart ! - Copyright ORBIFLY December 2007 - Disclaimer

ORBIFLY MET'MAP TEAM :

Programming & Development : Alexandra Zaïnal
Concept & original design : Baudouin d'Aumeries
Assistance for programming : Marc-Olivier Méhu
Technical & hardware support : Manuel Goepfert

Contact : metmap@orbifly.com




SOURCES & CREDITS :

   NOAA       Earth
Advisory